createdAt,value
2019-03-06T00:03:59.198Z,11.80
2019-03-06T00:09:08.079Z,9.79
2019-03-06T00:14:16.966Z,10.84
2019-03-06T00:19:25.851Z,13.98
2019-03-06T00:24:34.710Z,16.26
2019-03-06T00:29:43.576Z,12.49
2019-03-06T00:34:53.179Z,9.93
2019-03-06T00:40:02.059Z,11.46
2019-03-06T00:45:11.015Z,12.36
2019-03-06T00:50:19.920Z,11.60
2019-03-06T00:55:28.817Z,13.41
2019-03-06T01:00:37.689Z,12.97
2019-03-06T01:05:46.616Z,15.47
2019-03-06T01:10:55.468Z,13.13
2019-03-06T01:16:04.419Z,15.82
2019-03-06T01:21:13.310Z,16.16
2019-03-06T01:26:22.223Z,12.27
2019-03-06T01:31:31.088Z,16.35
2019-03-06T01:36:40.024Z,15.14
2019-03-06T01:41:48.889Z,18.01
2019-03-06T01:46:57.807Z,17.88
2019-03-06T01:52:06.812Z,15.53
2019-03-06T01:57:15.727Z,16.98
2019-03-06T02:02:24.635Z,16.59
2019-03-06T02:07:33.539Z,20.16
2019-03-06T02:12:42.518Z,18.22
2019-03-06T02:17:51.420Z,18.18
2019-03-06T02:23:00.385Z,20.90
2019-03-06T02:28:09.327Z,22.42
2019-03-06T02:33:18.176Z,19.39
2019-03-06T02:38:27.085Z,16.45
2019-03-06T02:43:35.975Z,18.28
2019-03-06T02:48:44.892Z,23.12
2019-03-06T02:53:53.760Z,20.91
2019-03-06T02:59:02.595Z,17.43
2019-03-06T03:04:11.480Z,20.56
2019-03-06T03:09:20.429Z,19.90
2019-03-06T03:14:29.288Z,20.62
2019-03-06T03:19:38.229Z,16.93
2019-03-06T03:24:47.101Z,20.82
2019-03-06T03:29:56.086Z,17.74
2019-03-06T03:35:04.967Z,18.38
2019-03-06T03:40:13.909Z,19.14
2019-03-06T03:45:22.772Z,19.91
2019-03-06T03:50:31.697Z,16.43
2019-03-06T03:55:40.573Z,19.11
2019-03-06T04:00:49.533Z,20.56
2019-03-06T04:05:58.398Z,19.10
2019-03-06T04:11:07.334Z,18.58
2019-03-06T04:16:16.221Z,18.57
2019-03-06T04:21:25.140Z,21.47
2019-03-06T04:26:33.988Z,19.29
2019-03-06T04:31:42.852Z,19.31
2019-03-06T04:36:51.745Z,18.94
2019-03-06T04:42:00.604Z,19.03
2019-03-06T04:47:09.468Z,18.70
2019-03-06T04:52:18.308Z,20.39
2019-03-06T04:57:27.541Z,18.41
2019-03-06T05:02:36.423Z,20.13
2019-03-06T05:07:45.387Z,17.06
2019-03-06T05:12:54.281Z,18.12
2019-03-06T05:18:03.199Z,21.60
2019-03-06T05:23:12.088Z,17.99
2019-03-06T05:33:25.145Z,17.00
2019-03-06T05:38:34.150Z,17.73
2019-03-06T05:43:43.055Z,16.32
2019-03-06T05:48:51.945Z,17.71
2019-03-06T05:54:00.815Z,17.43
2019-03-06T05:59:09.748Z,22.69
2019-03-06T06:04:18.667Z,17.96
2019-03-06T06:09:27.610Z,15.67
2019-03-06T06:14:36.473Z,16.11
2019-03-06T06:19:45.402Z,19.02
2019-03-06T06:24:54.292Z,16.38
2019-03-06T06:30:03.175Z,16.78
2019-03-06T06:35:12.018Z,18.66
2019-03-06T06:40:20.891Z,18.67
2019-03-06T06:45:29.797Z,15.36
2019-03-06T06:50:38.692Z,15.56
2019-03-06T06:55:47.580Z,15.29
2019-03-06T07:00:56.524Z,17.02
2019-03-06T07:06:05.431Z,14.64
2019-03-06T07:11:14.377Z,11.19
2019-03-06T07:16:23.229Z,14.24
2019-03-06T07:21:32.190Z,16.35
2019-03-06T07:26:41.112Z,10.30
2019-03-06T07:31:50.059Z,10.54
2019-03-06T07:36:58.999Z,8.64
2019-03-06T07:42:07.846Z,10.28
2019-03-06T07:47:16.771Z,8.45
2019-03-06T07:52:25.604Z,10.79
2019-03-06T07:57:34.491Z,8.47
2019-03-06T08:02:43.336Z,9.22
2019-03-06T08:07:52.246Z,10.38
2019-03-06T08:13:01.151Z,8.08
2019-03-06T08:18:10.040Z,7.83
2019-03-06T08:23:18.969Z,9.97
2019-03-06T08:28:27.996Z,7.78
2019-03-06T08:33:36.873Z,18.76
2019-03-06T08:38:45.798Z,52.55
2019-03-06T08:43:54.732Z,41.01
2019-03-06T08:49:03.702Z,33.63
2019-03-06T08:54:12.581Z,27.22
2019-03-06T08:59:21.483Z,21.72
2019-03-06T09:04:30.410Z,16.06
2019-03-06T09:09:39.264Z,11.61
2019-03-06T09:14:48.254Z,11.14
2019-03-06T09:19:57.132Z,11.94
2019-03-06T09:25:06.018Z,9.66
2019-03-06T09:30:16.257Z,10.97
2019-03-06T09:35:23.365Z,11.40
2019-03-06T09:40:32.288Z,8.88
2019-03-06T09:45:41.180Z,7.86
2019-03-06T09:50:50.168Z,7.37
2019-03-06T09:55:59.089Z,8.26
2019-03-06T10:01:07.952Z,10.23
2019-03-06T10:06:16.870Z,11.29
2019-03-06T10:11:25.780Z,10.91
2019-03-06T10:16:34.666Z,9.21
2019-03-06T10:21:43.580Z,8.28
2019-03-06T10:26:52.483Z,5.83
2019-03-06T10:32:01.351Z,9.03
2019-03-06T10:37:10.266Z,6.98
2019-03-06T10:42:19.136Z,8.08
2019-03-06T10:47:28.031Z,6.22
2019-03-06T10:52:36.909Z,5.98
2019-03-06T10:57:45.832Z,5.89
2019-03-06T11:02:56.773Z,7.81
2019-03-06T11:08:03.115Z,6.90
2019-03-06T11:13:12.023Z,5.60
2019-03-06T11:18:20.964Z,5.88
2019-03-06T11:23:29.850Z,12.91
2019-03-06T11:28:38.779Z,13.45
2019-03-06T11:33:47.629Z,13.76
2019-03-06T11:38:56.511Z,11.41
2019-03-06T11:44:05.393Z,11.84
2019-03-06T11:49:14.311Z,8.92
2019-03-06T11:54:23.200Z,6.24
2019-03-06T11:59:32.139Z,10.56
2019-03-06T12:04:41.009Z,8.76
2019-03-06T12:09:49.937Z,6.74
2019-03-06T12:14:58.784Z,7.11
2019-03-06T12:20:08.506Z,6.52
2019-03-06T12:25:16.116Z,8.51
2019-03-06T12:30:24.976Z,7.56
2019-03-06T12:35:33.841Z,6.39
2019-03-06T12:40:42.715Z,10.07
2019-03-06T12:45:51.627Z,7.28
2019-03-06T12:51:00.518Z,9.06
2019-03-06T12:56:09.437Z,11.82
2019-03-06T13:01:18.375Z,11.02
2019-03-06T13:06:27.295Z,8.81
2019-03-06T13:11:36.203Z,9.26
2019-03-06T13:16:45.061Z,10.77
2019-03-06T13:21:53.968Z,13.14
2019-03-06T13:27:02.880Z,13.21
2019-03-06T13:32:12.261Z,12.76
2019-03-06T13:37:20.245Z,14.02
2019-03-06T13:42:29.125Z,15.09
2019-03-06T13:47:38.013Z,17.72
2019-03-06T13:52:46.907Z,15.01
2019-03-06T13:57:55.746Z,21.50
2019-03-06T14:03:04.607Z,17.27
2019-03-06T14:08:13.529Z,16.86
2019-03-06T14:13:22.392Z,14.81
2019-03-06T14:18:31.266Z,14.50
2019-03-06T14:23:40.162Z,12.53
2019-03-06T14:28:49.057Z,12.72
2019-03-06T14:33:57.991Z,10.63
2019-03-06T14:39:06.888Z,9.01
2019-03-06T14:44:15.823Z,11.68
2019-03-06T14:49:24.715Z,10.91
2019-03-06T14:54:33.611Z,9.69
2019-03-06T14:59:42.544Z,10.47
2019-03-06T15:04:51.470Z,8.10
2019-03-06T15:10:00.355Z,10.22
2019-03-06T15:15:09.270Z,9.15
2019-03-06T15:20:18.134Z,9.21
2019-03-06T15:25:27.024Z,6.51
2019-03-06T15:30:35.916Z,7.11
2019-03-06T15:35:44.878Z,7.51
2019-03-06T15:40:53.785Z,6.57
2019-03-06T15:46:02.692Z,8.91
2019-03-06T15:51:12.363Z,7.93
2019-03-06T15:56:21.267Z,5.94
2019-03-06T16:01:30.152Z,6.27
2019-03-06T16:06:39.078Z,6.79
2019-03-06T16:11:47.932Z,7.51
2019-03-06T16:16:56.890Z,7.11
2019-03-06T16:22:05.764Z,15.95
2019-03-06T16:27:14.799Z,15.13
2019-03-06T16:32:23.687Z,13.54
2019-03-06T16:37:32.580Z,11.39
2019-03-06T16:42:41.428Z,10.27
2019-03-06T16:47:50.356Z,14.79
2019-03-06T16:52:59.264Z,12.94
2019-03-06T16:58:08.170Z,9.95
2019-03-06T17:03:17.371Z,11.44
2019-03-06T17:08:26.220Z,14.11
2019-03-06T17:13:35.127Z,14.24
2019-03-06T17:18:43.997Z,13.24
2019-03-06T17:23:52.898Z,12.33
2019-03-06T17:29:01.799Z,12.32
2019-03-06T17:34:10.697Z,10.49
2019-03-06T17:39:19.559Z,12.09
2019-03-06T17:44:28.446Z,12.83
2019-03-06T17:49:37.293Z,8.32
2019-03-06T17:54:46.279Z,11.53
2019-03-06T17:59:55.166Z,10.62
2019-03-06T18:05:04.108Z,10.06
2019-03-06T18:10:13.002Z,14.25
2019-03-06T18:15:21.944Z,10.55
2019-03-06T18:20:30.822Z,12.35
2019-03-06T18:25:39.846Z,13.54
2019-03-06T18:30:48.751Z,13.26
2019-03-06T18:35:59.061Z,12.78
2019-03-06T18:41:06.067Z,14.31
2019-03-06T18:46:14.925Z,14.77
2019-03-06T18:51:23.808Z,13.89
2019-03-06T18:56:32.692Z,12.69
2019-03-06T19:01:41.627Z,13.16
2019-03-06T19:06:50.508Z,11.06
2019-03-06T19:11:59.448Z,10.65
2019-03-06T19:17:08.275Z,12.39
2019-03-06T19:22:17.165Z,10.06
2019-03-06T19:27:26.092Z,10.14
2019-03-06T19:32:35.007Z,12.07
2019-03-06T19:37:43.963Z,13.25
2019-03-06T19:42:52.889Z,10.25
2019-03-06T19:48:01.811Z,11.67
2019-03-06T19:53:10.644Z,15.12
2019-03-06T19:58:19.530Z,12.43
2019-03-06T20:03:28.375Z,13.06
2019-03-06T20:08:37.258Z,11.33
2019-03-06T20:13:46.144Z,10.29
2019-03-06T20:18:55.035Z,11.35
2019-03-06T20:24:03.931Z,12.68
2019-03-06T20:29:13.021Z,14.73
2019-03-06T20:34:21.861Z,13.55
2019-03-06T20:39:30.760Z,10.40
2019-03-06T20:44:39.648Z,11.54
2019-03-06T20:49:48.556Z,12.58
2019-03-06T20:54:57.444Z,13.44
2019-03-06T21:00:06.356Z,11.10
2019-03-06T21:05:15.213Z,11.38
2019-03-06T21:10:24.088Z,13.04
2019-03-06T21:15:32.976Z,11.56
2019-03-06T21:20:41.883Z,12.43
2019-03-06T21:25:50.777Z,10.87
2019-03-06T21:30:59.636Z,12.07
2019-03-06T21:36:08.476Z,10.88
2019-03-06T21:41:17.448Z,16.55
2019-03-06T21:46:27.452Z,15.31
2019-03-06T21:51:26.448Z,14.65
2019-03-06T21:56:35.316Z,13.19
2019-03-06T22:01:44.213Z,14.19
2019-03-06T22:06:53.116Z,14.75
2019-03-06T22:12:02.021Z,12.13
2019-03-06T22:17:10.990Z,16.26
2019-03-06T22:22:19.916Z,14.24
2019-03-06T22:27:28.796Z,13.23
2019-03-06T22:32:37.709Z,12.37
2019-03-06T22:37:46.600Z,13.81
2019-03-06T22:42:55.608Z,15.61
2019-03-06T22:48:04.485Z,15.59
2019-03-06T22:53:13.426Z,14.31
2019-03-06T22:58:22.319Z,15.90
2019-03-06T23:03:31.243Z,13.97
2019-03-06T23:08:40.124Z,13.00
2019-03-06T23:13:48.997Z,20.65
2019-03-06T23:18:57.874Z,16.95
2019-03-06T23:24:06.815Z,14.49
2019-03-06T23:29:15.648Z,17.23
2019-03-06T23:34:24.602Z,15.49
2019-03-06T23:39:33.456Z,15.73
2019-03-06T23:44:42.415Z,16.39
2019-03-06T23:49:51.309Z,19.32
2019-03-06T23:55:00.278Z,14.80
